sensor_id;sensor_type;location;lat;lon;timestamp;pressure;altitude;pressure_sealevel;temperature;humidity
55217;BME280;41086;46.736;15.666;2023-07-02T00:00:07;97731.22;;;21.18;100.00
55217;BME280;41086;46.736;15.666;2023-07-02T00:02:35;97741.91;;;21.11;100.00
55217;BME280;41086;46.736;15.666;2023-07-02T00:05:03;97726.38;;;21.13;100.00
55217;BME280;41086;46.736;15.666;2023-07-02T00:07:30;97732.28;;;21.02;100.00
55217;BME280;41086;46.736;15.666;2023-07-02T00:09:58;97705.22;;;20.74;100.00
55217;BME280;41086;46.736;15.666;2023-07-02T00:12:24;97735.78;;;21.02;100.00
55217;BME280;41086;46.736;15.666;2023-07-02T00:14:51;97727.84;;;21.16;100.00
55217;BME280;41086;46.736;15.666;2023-07-02T00:17:20;97734.78;;;21.40;100.00
55217;BME280;41086;46.736;15.666;2023-07-02T00:19:47;97711.56;;;21.24;100.00
55217;BME280;41086;46.736;15.666;2023-07-02T00:22:19;97741.69;;;21.49;100.00
55217;BME280;41086;46.736;15.666;2023-07-02T00:24:46;97723.78;;;21.41;100.00
55217;BME280;41086;46.736;15.666;2023-07-02T00:27:13;97717.78;;;21.39;100.00
55217;BME280;41086;46.736;15.666;2023-07-02T00:29:40;97728.44;;;21.48;100.00
55217;BME280;41086;46.736;15.666;2023-07-02T00:32:07;97737.88;;;21.58;100.00
55217;BME280;41086;46.736;15.666;2023-07-02T00:34:34;97737.25;;;21.63;100.00
55217;BME280;41086;46.736;15.666;2023-07-02T00:37:02;97689.25;;;21.30;100.00
55217;BME280;41086;46.736;15.666;2023-07-02T00:39:29;97629.91;;;21.02;100.00
55217;BME280;41086;46.736;15.666;2023-07-02T00:42:01;97734.31;;;21.58;100.00
55217;BME280;41086;46.736;15.666;2023-07-02T00:44:29;97726.44;;;21.56;100.00
55217;BME280;41086;46.736;15.666;2023-07-02T00:46:56;97740.59;;;21.65;100.00
55217;BME280;41086;46.736;15.666;2023-07-02T00:49:24;97730.59;;;21.59;100.00
55217;BME280;41086;46.736;15.666;2023-07-02T00:51:52;97744.59;;;21.69;100.00
55217;BME280;41086;46.736;15.666;2023-07-02T00:54:20;97731.81;;;21.56;100.00
55217;BME280;41086;46.736;15.666;2023-07-02T00:56:48;97742.41;;;21.58;100.00
55217;BME280;41086;46.736;15.666;2023-07-02T00:59:14;97669.16;;;21.11;100.00
55217;BME280;41086;46.736;15.666;2023-07-02T01:01:42;97755.19;;;21.71;100.00
55217;BME280;41086;46.736;15.666;2023-07-02T01:04:10;97729.19;;;21.63;100.00
55217;BME280;41086;46.736;15.666;2023-07-02T01:06:39;97726.34;;;21.50;100.00
55217;BME280;41086;46.736;15.666;2023-07-02T01:09:08;97720.78;;;21.51;100.00
55217;BME280;41086;46.736;15.666;2023-07-02T01:11:40;97734.47;;;21.35;100.00
55217;BME280;41086;46.736;15.666;2023-07-02T01:14:12;97754.00;;;21.37;100.00
55217;BME280;41086;46.736;15.666;2023-07-02T01:16:42;97741.03;;;21.25;100.00
55217;BME280;41086;46.736;15.666;2023-07-02T01:22:21;97730.88;;;21.42;100.00
55217;BME280;41086;46.736;15.666;2023-07-02T01:24:53;97713.47;;;21.45;100.00
55217;BME280;41086;46.736;15.666;2023-07-02T01:27:20;97722.97;;;21.41;100.00
55217;BME280;41086;46.736;15.666;2023-07-02T01:29:51;97742.22;;;21.01;100.00
55217;BME280;41086;46.736;15.666;2023-07-02T01:32:18;97701.44;;;20.68;100.00
55217;BME280;41086;46.736;15.666;2023-07-02T01:34:45;97681.47;;;20.63;100.00
55217;BME280;41086;46.736;15.666;2023-07-02T01:37:16;97723.81;;;21.05;100.00
55217;BME280;41086;46.736;15.666;2023-07-02T01:39:46;97714.94;;;21.11;100.00
55217;BME280;41086;46.736;15.666;2023-07-02T01:42:15;97670.88;;;20.97;100.00
55217;BME280;41086;46.736;15.666;2023-07-02T01:44:44;97719.34;;;21.34;100.00
55217;BME280;41086;46.736;15.666;2023-07-02T01:47:11;97711.19;;;21.27;100.00
55217;BME280;41086;46.736;15.666;2023-07-02T01:49:37;97721.66;;;21.37;100.00
55217;BME280;41086;46.736;15.666;2023-07-02T01:52:04;97731.56;;;21.51;100.00
55217;BME280;41086;46.736;15.666;2023-07-02T01:54:34;97736.97;;;21.51;100.00
55217;BME280;41086;46.736;15.666;2023-07-02T01:57:05;97740.22;;;21.46;100.00
55217;BME280;41086;46.736;15.666;2023-07-02T01:59:32;97683.13;;;21.00;100.00
55217;BME280;41086;46.736;15.666;2023-07-02T02:02:00;97733.66;;;21.34;100.00
55217;BME280;41086;46.736;15.666;2023-07-02T02:04:27;97640.22;;;20.77;100.00
55217;BME280;41086;46.736;15.666;2023-07-02T02:06:55;97734.34;;;21.21;100.00
55217;BME280;41086;46.736;15.666;2023-07-02T02:09:22;97683.53;;;20.61;100.00
55217;BME280;41086;46.736;15.666;2023-07-02T02:11:50;97739.66;;;20.78;100.00
55217;BME280;41086;46.736;15.666;2023-07-02T02:14:19;97726.09;;;20.72;100.00
55217;BME280;41086;46.736;15.666;2023-07-02T02:16:54;97736.13;;;20.78;100.00
55217;BME280;41086;46.736;15.666;2023-07-02T02:19:21;97733.53;;;20.85;100.00
55217;BME280;41086;46.736;15.666;2023-07-02T02:21:47;97669.03;;;20.62;100.00
55217;BME280;41086;46.736;15.666;2023-07-02T02:24:14;97666.63;;;20.67;100.00
55217;BME280;41086;46.736;15.666;2023-07-02T02:26:44;97739.69;;;21.00;100.00
55217;BME280;41086;46.736;15.666;2023-07-02T02:29:11;97697.06;;;20.52;100.00
55217;BME280;41086;46.736;15.666;2023-07-02T02:31:38;97733.88;;;20.52;100.00
55217;BME280;41086;46.736;15.666;2023-07-02T02:34:05;97729.66;;;20.57;100.00
55217;BME280;41086;46.736;15.666;2023-07-02T02:36:40;97729.81;;;20.71;100.00
55217;BME280;41086;46.736;15.666;2023-07-02T02:39:06;97687.97;;;20.39;100.00
55217;BME280;41086;46.736;15.666;2023-07-02T02:41:33;97737.72;;;20.72;100.00
55217;BME280;41086;46.736;15.666;2023-07-02T02:44:00;97676.09;;;20.33;100.00
55217;BME280;41086;46.736;15.666;2023-07-02T02:46:30;97731.88;;;20.69;100.00
55217;BME280;41086;46.736;15.666;2023-07-02T02:48:57;97738.38;;;20.74;100.00
55217;BME280;41086;46.736;15.666;2023-07-02T02:51:27;97721.00;;;20.62;100.00
55217;BME280;41086;46.736;15.666;2023-07-02T02:53:54;97738.09;;;20.69;100.00
55217;BME280;41086;46.736;15.666;2023-07-02T02:56:20;97728.50;;;20.52;100.00
55217;BME280;41086;46.736;15.666;2023-07-02T02:58:47;97718.69;;;20.44;100.00
55217;BME280;41086;46.736;15.666;2023-07-02T03:01:16;97748.84;;;20.54;100.00
55217;BME280;41086;46.736;15.666;2023-07-02T03:03:43;97684.50;;;20.00;100.00
55217;BME280;41086;46.736;15.666;2023-07-02T03:06:42;97739.81;;;20.32;100.00
55217;BME280;41086;46.736;15.666;2023-07-02T03:09:08;97696.59;;;20.04;100.00
55217;BME280;41086;46.736;15.666;2023-07-02T03:11:39;97723.41;;;20.12;100.00
55217;BME280;41086;46.736;15.666;2023-07-02T03:14:06;97736.09;;;20.19;100.00
55217;BME280;41086;46.736;15.666;2023-07-02T03:16:34;97726.91;;;19.98;100.00
55217;BME280;41086;46.736;15.666;2023-07-02T03:19:01;97700.63;;;19.70;100.00
55217;BME280;41086;46.736;15.666;2023-07-02T03:21:28;97731.59;;;19.81;100.00
55217;BME280;41086;46.736;15.666;2023-07-02T03:23:56;97711.03;;;19.74;100.00
55217;BME280;41086;46.736;15.666;2023-07-02T03:26:50;97760.19;;;19.97;100.00
55217;BME280;41086;46.736;15.666;2023-07-02T03:29:16;97738.22;;;19.93;100.00
55217;BME280;41086;46.736;15.666;2023-07-02T03:35:05;97705.44;;;19.75;100.00
55217;BME280;41086;46.736;15.666;2023-07-02T03:37:32;97706.47;;;19.74;100.00
55217;BME280;41086;46.736;15.666;2023-07-02T03:39:59;97721.13;;;19.86;100.00
55217;BME280;41086;46.736;15.666;2023-07-02T03:42:27;97743.66;;;19.70;100.00
55217;BME280;41086;46.736;15.666;2023-07-02T03:44:53;97741.88;;;19.55;100.00
55217;BME280;41086;46.736;15.666;2023-07-02T03:47:20;97776.75;;;19.86;100.00
55217;BME280;41086;46.736;15.666;2023-07-02T03:49:48;97697.34;;;19.37;100.00
55217;BME280;41086;46.736;15.666;2023-07-02T03:52:14;97725.41;;;19.58;100.00
55217;BME280;41086;46.736;15.666;2023-07-02T03:54:41;97781.00;;;19.80;100.00
55217;BME280;41086;46.736;15.666;2023-07-02T03:57:09;97742.72;;;19.78;100.00
55217;BME280;41086;46.736;15.666;2023-07-02T03:59:36;97706.94;;;19.55;100.00
55217;BME280;41086;46.736;15.666;2023-07-02T04:02:09;97768.22;;;19.82;100.00
55217;BME280;41086;46.736;15.666;2023-07-02T04:04:36;97788.78;;;19.75;100.00
55217;BME280;41086;46.736;15.666;2023-07-02T04:07:03;97786.53;;;19.56;100.00
55217;BME280;41086;46.736;15.666;2023-07-02T04:09:30;97793.56;;;19.57;100.00
55217;BME280;41086;46.736;15.666;2023-07-02T04:12:02;97784.84;;;19.32;100.00
55217;BME280;41086;46.736;15.666;2023-07-02T04:14:29;97799.88;;;19.49;100.00
55217;BME280;41086;46.736;15.666;2023-07-02T04:16:56;97805.13;;;19.65;100.00
55217;BME280;41086;46.736;15.666;2023-07-02T04:19:22;97799.44;;;19.68;100.00
55217;BME280;41086;46.736;15.666;2023-07-02T04:21:49;97808.44;;;19.76;100.00
55217;BME280;41086;46.736;15.666;2023-07-02T04:24:17;97752.06;;;19.59;100.00
55217;BME280;41086;46.736;15.666;2023-07-02T04:26:44;97804.25;;;20.11;100.00
55217;BME280;41086;46.736;15.666;2023-07-02T04:29:31;97800.34;;;19.99;100.00
55217;BME280;41086;46.736;15.666;2023-07-02T04:31:58;97814.03;;;20.27;100.00
55217;BME280;41086;46.736;15.666;2023-07-02T04:34:24;97810.47;;;20.49;100.00
55217;BME280;41086;46.736;15.666;2023-07-02T04:36:51;97810.63;;;20.33;100.00
55217;BME280;41086;46.736;15.666;2023-07-02T04:39:19;97809.81;;;20.47;100.00
55217;BME280;41086;46.736;15.666;2023-07-02T04:41:46;97792.25;;;20.51;100.00
55217;BME280;41086;46.736;15.666;2023-07-02T04:44:13;97814.97;;;20.72;100.00
55217;BME280;41086;46.736;15.666;2023-07-02T04:46:40;97811.16;;;20.66;100.00
55217;BME280;41086;46.736;15.666;2023-07-02T04:49:06;97817.56;;;20.80;100.00
55217;BME280;41086;46.736;15.666;2023-07-02T04:51:33;97825.53;;;20.88;100.00
55217;BME280;41086;46.736;15.666;2023-07-02T04:54:00;97810.75;;;20.99;100.00
55217;BME280;41086;46.736;15.666;2023-07-02T04:56:27;97826.53;;;21.02;100.00
55217;BME280;41086;46.736;15.666;2023-07-02T04:58:53;97832.78;;;20.88;100.00
55217;BME280;41086;46.736;15.666;2023-07-02T05:01:20;97840.78;;;20.96;100.00
55217;BME280;41086;46.736;15.666;2023-07-02T05:03:47;97846.13;;;21.11;100.00
55217;BME280;41086;46.736;15.666;2023-07-02T05:06:14;97837.50;;;21.15;100.00
55217;BME280;41086;46.736;15.666;2023-07-02T05:08:41;97846.41;;;21.16;100.00
55217;BME280;41086;46.736;15.666;2023-07-02T05:11:08;97838.66;;;21.28;100.00
55217;BME280;41086;46.736;15.666;2023-07-02T05:13:35;97844.28;;;21.62;100.00
55217;BME280;41086;46.736;15.666;2023-07-02T05:16:03;97745.75;;;21.02;100.00
55217;BME280;41086;46.736;15.666;2023-07-02T05:18:30;97842.44;;;21.84;100.00
55217;BME280;41086;46.736;15.666;2023-07-02T05:20:57;97842.38;;;21.78;100.00
55217;BME280;41086;46.736;15.666;2023-07-02T05:23:24;97839.50;;;21.43;100.00
55217;BME280;41086;46.736;15.666;2023-07-02T05:25:50;97839.84;;;21.55;100.00
55217;BME280;41086;46.736;15.666;2023-07-02T05:28:17;97832.06;;;21.45;100.00
55217;BME280;41086;46.736;15.666;2023-07-02T05:30:44;97841.72;;;21.54;100.00
55217;BME280;41086;46.736;15.666;2023-07-02T05:33:11;97838.84;;;21.77;100.00
55217;BME280;41086;46.736;15.666;2023-07-02T05:35:39;97830.56;;;21.79;100.00
55217;BME280;41086;46.736;15.666;2023-07-02T05:38:05;97837.50;;;21.88;100.00
55217;BME280;41086;46.736;15.666;2023-07-02T05:40:32;97851.88;;;22.17;100.00
55217;BME280;41086;46.736;15.666;2023-07-02T05:42:59;97847.66;;;22.07;100.00
55217;BME280;41086;46.736;15.666;2023-07-02T05:45:26;97856.25;;;22.18;100.00
55217;BME280;41086;46.736;15.666;2023-07-02T05:47:54;97836.78;;;22.01;100.00
55217;BME280;41086;46.736;15.666;2023-07-02T05:50:20;97867.28;;;22.44;100.00
55217;BME280;41086;46.736;15.666;2023-07-02T05:52:47;97870.22;;;22.21;100.00
55217;BME280;41086;46.736;15.666;2023-07-02T05:55:14;97874.91;;;22.62;100.00
55217;BME280;41086;46.736;15.666;2023-07-02T05:57:41;97871.88;;;22.72;100.00
55217;BME280;41086;46.736;15.666;2023-07-02T06:00:08;97877.13;;;22.87;100.00
55217;BME280;41086;46.736;15.666;2023-07-02T06:02:38;97877.53;;;22.84;100.00
55217;BME280;41086;46.736;15.666;2023-07-02T06:05:05;97882.78;;;22.92;100.00
55217;BME280;41086;46.736;15.666;2023-07-02T06:07:32;97881.13;;;22.63;100.00
55217;BME280;41086;46.736;15.666;2023-07-02T06:09:59;97878.00;;;22.59;100.00
55217;BME280;41086;46.736;15.666;2023-07-02T06:12:26;97879.06;;;22.65;100.00
55217;BME280;41086;46.736;15.666;2023-07-02T06:14:53;97883.56;;;22.57;100.00
55217;BME280;41086;46.736;15.666;2023-07-02T06:17:19;97886.69;;;22.54;100.00
55217;BME280;41086;46.736;15.666;2023-07-02T06:19:48;97852.94;;;22.44;100.00
55217;BME280;41086;46.736;15.666;2023-07-02T06:22:15;97886.50;;;22.56;100.00
55217;BME280;41086;46.736;15.666;2023-07-02T06:24:41;97891.69;;;22.57;100.00
55217;BME280;41086;46.736;15.666;2023-07-02T06:27:10;97890.66;;;22.59;100.00
55217;BME280;41086;46.736;15.666;2023-07-02T06:29:37;97884.22;;;22.60;100.00
55217;BME280;41086;46.736;15.666;2023-07-02T06:32:04;97903.53;;;22.56;100.00
55217;BME280;41086;46.736;15.666;2023-07-02T06:34:31;97909.31;;;22.53;100.00
55217;BME280;41086;46.736;15.666;2023-07-02T06:36:58;97847.00;;;22.27;100.00
55217;BME280;41086;46.736;15.666;2023-07-02T06:39:24;97905.50;;;22.69;100.00
55217;BME280;41086;46.736;15.666;2023-07-02T06:41:51;97904.56;;;22.84;100.00
55217;BME280;41086;46.736;15.666;2023-07-02T06:44:18;97917.13;;;22.98;100.00
55217;BME280;41086;46.736;15.666;2023-07-02T06:46:48;97838.81;;;22.70;100.00
55217;BME280;41086;46.736;15.666;2023-07-02T06:49:15;97910.91;;;23.32;100.00
55217;BME280;41086;46.736;15.666;2023-07-02T06:51:41;97925.53;;;23.10;100.00
55217;BME280;41086;46.736;15.666;2023-07-02T06:54:08;97916.41;;;23.11;100.00
55217;BME280;41086;46.736;15.666;2023-07-02T06:56:35;97926.78;;;23.07;100.00
55217;BME280;41086;46.736;15.666;2023-07-02T06:59:02;97921.47;;;23.27;100.00
55217;BME280;41086;46.736;15.666;2023-07-02T07:01:29;97871.94;;;23.13;100.00
55217;BME280;41086;46.736;15.666;2023-07-02T07:03:56;97921.63;;;23.54;100.00
55217;BME280;41086;46.736;15.666;2023-07-02T07:06:24;97920.56;;;23.48;100.00
55217;BME280;41086;46.736;15.666;2023-07-02T07:08:50;97924.31;;;23.54;100.00
55217;BME280;41086;46.736;15.666;2023-07-02T07:11:17;97929.50;;;23.49;100.00
55217;BME280;41086;46.736;15.666;2023-07-02T07:13:44;97939.03;;;23.44;100.00
55217;BME280;41086;46.736;15.666;2023-07-02T07:16:11;97913.22;;;23.42;100.00
55217;BME280;41086;46.736;15.666;2023-07-02T07:18:38;97925.97;;;23.55;100.00
55217;BME280;41086;46.736;15.666;2023-07-02T07:21:05;97935.63;;;23.71;100.00
55217;BME280;41086;46.736;15.666;2023-07-02T07:23:32;97917.16;;;23.81;100.00
55217;BME280;41086;46.736;15.666;2023-07-02T07:25:59;97931.41;;;24.16;100.00
55217;BME280;41086;46.736;15.666;2023-07-02T07:28:25;97930.03;;;24.60;100.00
55217;BME280;41086;46.736;15.666;2023-07-02T07:30:52;97930.00;;;25.00;100.00
55217;BME280;41086;46.736;15.666;2023-07-02T07:33:19;97935.16;;;25.35;100.00
55217;BME280;41086;46.736;15.666;2023-07-02T07:35:46;97943.78;;;25.70;99.71
55217;BME280;41086;46.736;15.666;2023-07-02T07:38:13;97937.59;;;25.56;93.18
55217;BME280;41086;46.736;15.666;2023-07-02T07:40:41;97938.59;;;25.62;85.51
55217;BME280;41086;46.736;15.666;2023-07-02T07:43:08;97940.78;;;25.40;87.69
55217;BME280;41086;46.736;15.666;2023-07-02T07:45:35;97943.56;;;25.85;90.34
55217;BME280;41086;46.736;15.666;2023-07-02T07:48:02;97934.03;;;25.56;89.61
55217;BME280;41086;46.736;15.666;2023-07-02T07:50:28;97945.25;;;25.73;91.65
55217;BME280;41086;46.736;15.666;2023-07-02T07:52:56;97939.97;;;25.91;90.91
55217;BME280;41086;46.736;15.666;2023-07-02T07:55:22;97950.38;;;26.01;84.75
55217;BME280;41086;46.736;15.666;2023-07-02T07:57:49;97942.56;;;26.18;84.62
55217;BME280;41086;46.736;15.666;2023-07-02T08:00:16;97948.28;;;26.35;86.02
55217;BME280;41086;46.736;15.666;2023-07-02T08:02:47;97951.84;;;26.92;81.95
55217;BME280;41086;46.736;15.666;2023-07-02T08:05:14;97945.53;;;27.42;76.90
55217;BME280;41086;46.736;15.666;2023-07-02T08:07:41;97944.00;;;27.27;77.07
55217;BME280;41086;46.736;15.666;2023-07-02T08:10:08;97940.63;;;27.50;78.91
55217;BME280;41086;46.736;15.666;2023-07-02T08:12:35;97947.25;;;27.54;72.27
55217;BME280;41086;46.736;15.666;2023-07-02T08:15:02;97933.66;;;27.54;70.51
55217;BME280;41086;46.736;15.666;2023-07-02T08:17:29;97935.19;;;27.50;63.36
55217;BME280;41086;46.736;15.666;2023-07-02T08:19:57;97934.19;;;27.45;65.68
55217;BME280;41086;46.736;15.666;2023-07-02T08:22:24;97913.31;;;27.57;66.59
55217;BME280;41086;46.736;15.666;2023-07-02T08:24:51;97934.94;;;27.52;64.49
55217;BME280;41086;46.736;15.666;2023-07-02T08:27:18;97933.94;;;27.28;58.63
55217;BME280;41086;46.736;15.666;2023-07-02T08:29:47;97939.94;;;27.36;58.09
55217;BME280;41086;46.736;15.666;2023-07-02T08:32:15;97937.47;;;28.02;56.15
55217;BME280;41086;46.736;15.666;2023-07-02T08:34:42;97935.09;;;27.94;59.94
55217;BME280;41086;46.736;15.666;2023-07-02T08:37:09;97934.63;;;27.23;61.08
55217;BME280;41086;46.736;15.666;2023-07-02T08:39:37;97939.59;;;28.30;63.48
55217;BME280;41086;46.736;15.666;2023-07-02T08:42:06;97935.72;;;28.91;59.34
55217;BME280;41086;46.736;15.666;2023-07-02T08:44:33;97930.22;;;28.80;59.79
55217;BME280;41086;46.736;15.666;2023-07-02T08:47:01;97917.53;;;28.20;57.61
55217;BME280;41086;46.736;15.666;2023-07-02T08:49:28;97926.97;;;28.17;57.54
55217;BME280;41086;46.736;15.666;2023-07-02T08:51:55;97928.03;;;28.04;62.11
55217;BME280;41086;46.736;15.666;2023-07-02T08:54:22;97924.34;;;27.99;58.08
55217;BME280;41086;46.736;15.666;2023-07-02T08:56:49;97925.00;;;28.24;58.00
55217;BME280;41086;46.736;15.666;2023-07-02T08:59:17;97924.03;;;28.19;57.58
55217;BME280;41086;46.736;15.666;2023-07-02T09:01:49;97922.91;;;28.80;57.85
55217;BME280;41086;46.736;15.666;2023-07-02T09:04:20;97936.88;;;28.95;57.99
55217;BME280;41086;46.736;15.666;2023-07-02T09:06:48;97942.81;;;29.51;63.49
55217;BME280;41086;46.736;15.666;2023-07-02T09:09:15;97934.97;;;29.55;60.79
55217;BME280;41086;46.736;15.666;2023-07-02T09:11:49;97919.09;;;29.28;53.84
55217;BME280;41086;46.736;15.666;2023-07-02T09:14:26;97949.00;;;29.99;54.94
55217;BME280;41086;46.736;15.666;2023-07-02T09:17:07;97946.69;;;30.65;50.04
55217;BME280;41086;46.736;15.666;2023-07-02T09:19:36;97943.53;;;30.73;50.96
55217;BME280;41086;46.736;15.666;2023-07-02T09:22:14;97950.88;;;30.56;53.01
55217;BME280;41086;46.736;15.666;2023-07-02T09:24:51;97945.47;;;30.27;55.29
55217;BME280;41086;46.736;15.666;2023-07-02T09:27:19;97951.84;;;30.78;53.52
55217;BME280;41086;46.736;15.666;2023-07-02T09:29:51;97947.91;;;31.42;52.61
55217;BME280;41086;46.736;15.666;2023-07-02T09:32:25;97943.28;;;31.86;49.97
55217;BME280;41086;46.736;15.666;2023-07-02T09:34:54;97943.81;;;32.32;45.94
55217;BME280;41086;46.736;15.666;2023-07-02T09:37:22;97948.81;;;32.40;42.70
55217;BME280;41086;46.736;15.666;2023-07-02T09:39:53;97946.72;;;32.20;47.36
55217;BME280;41086;46.736;15.666;2023-07-02T09:42:22;97943.97;;;32.20;46.46
55217;BME280;41086;46.736;15.666;2023-07-02T09:44:52;97949.25;;;32.54;46.66
55217;BME280;41086;46.736;15.666;2023-07-02T09:47:22;97957.19;;;32.83;42.86
55217;BME280;41086;46.736;15.666;2023-07-02T09:49:54;97941.03;;;33.24;44.07
55217;BME280;41086;46.736;15.666;2023-07-02T09:52:23;97949.53;;;33.65;41.93
55217;BME280;41086;46.736;15.666;2023-07-02T09:54:50;97951.00;;;33.93;38.06
55217;BME280;41086;46.736;15.666;2023-07-02T09:57:16;97952.06;;;33.76;40.11
55217;BME280;41086;46.736;15.666;2023-07-02T09:59:44;97960.13;;;33.46;39.46
55217;BME280;41086;46.736;15.666;2023-07-02T10:02:12;97949.97;;;32.72;39.49
55217;BME280;41086;46.736;15.666;2023-07-02T10:04:44;97950.34;;;32.53;39.72
55217;BME280;41086;46.736;15.666;2023-07-02T10:07:13;97961.25;;;33.07;45.47
55217;BME280;41086;46.736;15.666;2023-07-02T10:09:52;97957.75;;;33.17;40.18
55217;BME280;41086;46.736;15.666;2023-07-02T10:12:21;97961.50;;;33.06;39.09
55217;BME280;41086;46.736;15.666;2023-07-02T10:14:57;97959.06;;;33.09;37.84
55217;BME280;41086;46.736;15.666;2023-07-02T10:17:32;97953.66;;;32.87;37.44
55217;BME280;41086;46.736;15.666;2023-07-02T10:20:04;97957.69;;;33.07;41.44
55217;BME280;41086;46.736;15.666;2023-07-02T10:22:47;97962.97;;;33.19;40.07
55217;BME280;41086;46.736;15.666;2023-07-02T10:25:37;97958.19;;;33.46;36.95
55217;BME280;41086;46.736;15.666;2023-07-02T10:28:17;97955.81;;;32.80;36.25
55217;BME280;41086;46.736;15.666;2023-07-02T10:30:46;97926.72;;;33.17;37.87
55217;BME280;41086;46.736;15.666;2023-07-02T10:33:16;97953.44;;;33.74;38.55
55217;BME280;41086;46.736;15.666;2023-07-02T10:35:46;97949.91;;;33.36;36.24
55217;BME280;41086;46.736;15.666;2023-07-02T10:38:23;97955.72;;;33.45;37.12
55217;BME280;41086;46.736;15.666;2023-07-02T10:40:55;97949.41;;;33.49;39.27
55217;BME280;41086;46.736;15.666;2023-07-02T10:43:30;97949.06;;;33.83;41.95
55217;BME280;41086;46.736;15.666;2023-07-02T10:46:00;97954.84;;;33.87;36.99
55217;BME280;41086;46.736;15.666;2023-07-02T10:48:28;97947.78;;;34.06;38.04
55217;BME280;41086;46.736;15.666;2023-07-02T10:50:56;97944.25;;;34.11;37.50
55217;BME280;41086;46.736;15.666;2023-07-02T10:53:23;97955.81;;;34.13;38.40
55217;BME280;41086;46.736;15.666;2023-07-02T10:55:57;97953.22;;;33.86;35.55
55217;BME280;41086;46.736;15.666;2023-07-02T10:58:25;97951.09;;;34.08;38.14
55217;BME280;41086;46.736;15.666;2023-07-02T11:00:52;97953.88;;;34.18;38.05
55217;BME280;41086;46.736;15.666;2023-07-02T11:05:50;97954.72;;;34.24;36.04
55217;BME280;41086;46.736;15.666;2023-07-02T11:08:19;97949.81;;;34.47;37.49
55217;BME280;41086;46.736;15.666;2023-07-02T11:10:49;97937.44;;;34.34;34.77
55217;BME280;41086;46.736;15.666;2023-07-02T11:13:18;97940.75;;;34.51;37.16
55217;BME280;41086;46.736;15.666;2023-07-02T11:15:46;97939.91;;;34.51;38.69
55217;BME280;41086;46.736;15.666;2023-07-02T11:18:16;97944.91;;;34.64;34.91
55217;BME280;41086;46.736;15.666;2023-07-02T11:20:45;97944.34;;;34.98;35.08
55217;BME280;41086;46.736;15.666;2023-07-02T11:23:23;97943.16;;;35.50;35.45
55217;BME280;41086;46.736;15.666;2023-07-02T11:26:02;97940.41;;;35.55;36.38
55217;BME280;41086;46.736;15.666;2023-07-02T11:28:31;97925.00;;;35.59;35.24
55217;BME280;41086;46.736;15.666;2023-07-02T11:30:58;97942.81;;;35.77;32.09
55217;BME280;41086;46.736;15.666;2023-07-02T11:33:36;97944.28;;;35.64;30.85
55217;BME280;41086;46.736;15.666;2023-07-02T11:36:07;97940.94;;;35.72;31.76
55217;BME280;41086;46.736;15.666;2023-07-02T11:38:36;97945.72;;;35.05;31.17
55217;BME280;41086;46.736;15.666;2023-07-02T11:41:04;97910.47;;;34.46;32.64
55217;BME280;41086;46.736;15.666;2023-07-02T11:43:32;97932.25;;;34.68;35.52
55217;BME280;41086;46.736;15.666;2023-07-02T11:45:59;97947.41;;;34.96;34.91
55217;BME280;41086;46.736;15.666;2023-07-02T11:48:26;97938.56;;;34.63;36.62
55217;BME280;41086;46.736;15.666;2023-07-02T11:50:52;97940.50;;;34.83;37.41
55217;BME280;41086;46.736;15.666;2023-07-02T11:53:21;97936.38;;;35.06;37.46
55217;BME280;41086;46.736;15.666;2023-07-02T11:55:48;97941.78;;;35.63;36.78
55217;BME280;41086;46.736;15.666;2023-07-02T11:58:15;97934.50;;;35.92;33.22
55217;BME280;41086;46.736;15.666;2023-07-02T12:00:42;97939.84;;;36.28;32.08
55217;BME280;41086;46.736;15.666;2023-07-02T12:03:09;97939.94;;;36.57;34.97
55217;BME280;41086;46.736;15.666;2023-07-02T12:05:38;97935.25;;;36.13;34.93
55217;BME280;41086;46.736;15.666;2023-07-02T12:08:05;97932.34;;;36.34;35.67
55217;BME280;41086;46.736;15.666;2023-07-02T12:10:32;97935.03;;;36.44;32.66
55217;BME280;41086;46.736;15.666;2023-07-02T12:13:00;97935.00;;;36.54;31.88
55217;BME280;41086;46.736;15.666;2023-07-02T12:15:27;97935.56;;;36.86;31.80
55217;BME280;41086;46.736;15.666;2023-07-02T12:17:54;97926.38;;;36.95;33.79
55217;BME280;41086;46.736;15.666;2023-07-02T12:20:21;97932.03;;;36.80;31.74
55217;BME280;41086;46.736;15.666;2023-07-02T12:22:48;97924.13;;;36.68;31.45
55217;BME280;41086;46.736;15.666;2023-07-02T12:25:15;97926.53;;;36.41;29.94
55217;BME280;41086;46.736;15.666;2023-07-02T12:27:42;97930.56;;;36.53;31.62
55217;BME280;41086;46.736;15.666;2023-07-02T12:30:09;97936.44;;;35.92;31.49
55217;BME280;41086;46.736;15.666;2023-07-02T12:32:38;97929.41;;;35.60;33.48
55217;BME280;41086;46.736;15.666;2023-07-02T12:35:05;97924.47;;;35.37;35.99
55217;BME280;41086;46.736;15.666;2023-07-02T12:37:32;97922.59;;;35.12;35.55
55217;BME280;41086;46.736;15.666;2023-07-02T12:39:59;97922.06;;;34.94;34.36
55217;BME280;41086;46.736;15.666;2023-07-02T12:42:25;97916.00;;;35.02;34.12
55217;BME280;41086;46.736;15.666;2023-07-02T12:44:52;97917.34;;;35.30;34.64
55217;BME280;41086;46.736;15.666;2023-07-02T12:47:19;97915.06;;;35.58;34.97
55217;BME280;41086;46.736;15.666;2023-07-02T12:49:47;97916.16;;;35.52;34.76
55217;BME280;41086;46.736;15.666;2023-07-02T12:52:14;97920.63;;;35.43;33.06
55217;BME280;41086;46.736;15.666;2023-07-02T12:54:41;97920.91;;;35.31;35.17
55217;BME280;41086;46.736;15.666;2023-07-02T12:57:07;97920.56;;;35.58;34.45
55217;BME280;41086;46.736;15.666;2023-07-02T12:59:35;97914.78;;;35.49;33.30